Time;durP1;ratioP1;P1;durP2;ratioP2;P2;SDS_P1;SDS_P2;PMS_P1;PMS_P2;Temp;Humidity;BMP_temperature;BMP_pressure;BME280_temperature;BME280_humidity;BME280_pressure;Samples;Min_cycle;Max_cycle;Signal;HPM_P1;HPM_P2
2022/07/30 04:02:09;;;;;;;6.37;5.77;;;18.90;99.90;;;;;;5181640;23;20870;-68
2022/07/30 04:04:36;;;;;;;7.10;5.57;;;18.90;99.90;;;;;;4977293;28;20465;-66
2022/07/30 04:07:03;;;;;;;7.67;5.23;;;19.00;99.90;;;;;;4977220;28;20545;-65
2022/07/30 04:09:29;;;;;;;5.60;4.97;;;19.00;99.90;;;;;;4977426;28;20459;-66
2022/07/30 04:11:56;;;;;;;5.80;5.27;;;19.10;99.90;;;;;;4977079;28;20470;-66
2022/07/30 04:14:23;;;;;;;7.30;5.40;;;19.10;99.90;;;;;;4977298;28;20457;-66
2022/07/30 04:16:54;;;;;;;5.50;5.00;;;19.10;99.90;;;;;;4976823;28;20478;-66
2022/07/30 04:19:26;;;;;;;5.97;5.47;;;19.10;99.90;;;;;;4977227;28;20438;-66
2022/07/30 04:21:55;;;;;;;5.73;5.20;;;19.20;99.90;;;;;;4976057;28;20479;-65
2022/07/30 04:24:23;;;;;;;6.30;4.73;;;19.20;99.90;;;;;;4976561;28;20487;-65
2022/07/30 04:26:51;;;;;;;5.50;5.10;;;19.20;99.90;;;;;;4976985;28;20459;-66
2022/07/30 04:29:19;;;;;;;5.63;5.13;;;19.30;99.90;;;;;;4976819;28;20455;-66
2022/07/30 04:31:46;;;;;;;8.83;5.03;;;19.30;99.90;;;;;;4976820;28;20474;-66
2022/07/30 04:34:14;;;;;;;5.80;5.30;;;19.30;99.90;;;;;;4976858;28;20447;-66
2022/07/30 04:36:43;;;;;;;8.83;6.63;;;19.30;99.90;;;;;;4982604;28;20462;-65
2022/07/30 04:39:10;;;;;;;5.57;5.07;;;19.30;99.90;;;;;;4983227;28;20454;-66
2022/07/30 04:41:38;;;;;;;5.80;5.40;;;19.30;99.90;;;;;;4976571;28;20506;-66
2022/07/30 04:44:05;;;;;;;6.27;5.47;;;19.30;99.90;;;;;;4976544;28;20483;-66
2022/07/30 04:46:32;;;;;;;6.20;5.70;;;19.40;99.90;;;;;;4976620;28;20478;-67
2022/07/30 04:48:59;;;;;;;6.63;6.03;;;19.30;99.90;;;;;;4976631;28;20481;-66
2022/07/30 04:51:28;;;;;;;6.57;5.90;;;19.30;99.90;;;;;;4979192;28;20471;-67
2022/07/30 04:53:58;;;;;;;7.40;6.67;;;19.40;99.90;;;;;;4980081;28;20967;-66
2022/07/30 04:56:26;;;;;;;7.00;6.40;;;19.40;99.90;;;;;;4979321;28;20517;-68
2022/07/30 04:58:53;;;;;;;7.00;6.30;;;19.40;99.90;;;;;;4976292;28;20455;-67
2022/07/30 05:01:28;;;;;;;8.10;6.90;;;19.40;99.90;;;;;;4975841;28;20898;-66
2022/07/30 05:03:57;;;;;;;6.93;6.33;;;19.40;99.90;;;;;;4976336;28;20561;-66
2022/07/30 05:06:25;;;;;;;8.03;7.33;;;19.40;99.90;;;;;;4976138;28;20458;-66
2022/07/30 05:08:52;;;;;;;6.80;6.30;;;19.40;99.90;;;;;;4976200;28;20455;-66
2022/07/30 05:11:20;;;;;;;7.63;6.93;;;19.40;99.90;;;;;;4976139;28;20550;-66
2022/07/30 05:13:48;;;;;;;6.87;6.27;;;19.40;99.90;;;;;;4975804;28;20965;-66
2022/07/30 05:16:15;;;;;;;8.00;7.30;;;19.50;99.90;;;;;;4976082;28;20490;-66
2022/07/30 05:18:42;;;;;;;6.70;5.67;;;19.50;99.90;;;;;;4975902;28;20827;-66
2022/07/30 05:21:09;;;;;;;6.90;6.23;;;19.50;99.90;;;;;;4975668;28;20474;-66
2022/07/30 05:23:36;;;;;;;7.37;6.30;;;19.50;99.90;;;;;;4975674;28;20475;-66
2022/07/30 05:26:03;;;;;;;7.03;6.20;;;19.60;99.90;;;;;;4975756;28;20463;-66
2022/07/30 05:28:31;;;;;;;7.33;6.53;;;19.70;99.90;;;;;;4975762;28;20476;-66
2022/07/30 05:30:58;;;;;;;7.77;7.00;;;19.80;99.90;;;;;;4975538;28;20474;-66
2022/07/30 05:33:25;;;;;;;8.40;6.33;;;20.00;99.90;;;;;;4975703;28;20477;-66
2022/07/30 05:35:51;;;;;;;9.00;6.63;;;20.20;99.90;;;;;;4975753;28;20458;-66
2022/07/30 05:38:18;;;;;;;8.50;6.33;;;20.50;99.90;;;;;;4975506;28;20459;-66
2022/07/30 05:40:45;;;;;;;6.28;5.75;;;20.90;99.90;;;;;;4975353;28;20469;-66
2022/07/30 05:43:12;;;;;;;6.20;5.70;;;21.20;99.90;;;;;;4975712;28;20215;-66
2022/07/30 05:45:40;;;;;;;6.93;6.10;;;21.60;99.90;;;;;;4975513;28;20513;-66
2022/07/30 05:48:07;;;;;;;5.77;5.33;;;21.90;99.90;;;;;;4975635;28;20459;-66
2022/07/30 05:50:34;;;;;;;6.10;5.50;;;22.20;99.90;;;;;;4975467;28;20565;-67
2022/07/30 05:53:01;;;;;;;5.30;4.90;;;22.30;99.90;;;;;;4975443;28;20551;-67
2022/07/30 05:55:27;;;;;;;7.57;6.90;;;22.40;99.90;;;;;;4975559;28;20459;-67
2022/07/30 05:57:54;;;;;;;5.53;5.00;;;22.50;99.90;;;;;;4975535;28;20455;-67
2022/07/30 06:00:21;;;;;;;7.70;5.73;;;22.60;99.90;;;;;;4974958;28;20942;-67
2022/07/30 06:02:49;;;;;;;8.57;6.00;;;22.60;99.90;;;;;;4975284;28;20498;-67
2022/07/30 06:05:15;;;;;;;6.37;5.77;;;22.70;99.90;;;;;;4975256;28;20455;-67
2022/07/30 06:07:42;;;;;;;6.22;4.75;;;22.80;99.90;;;;;;4974435;28;20466;-66
2022/07/30 06:10:09;;;;;;;7.10;5.77;;;22.90;99.90;;;;;;4975294;28;20195;-66
2022/07/30 06:12:36;;;;;;;6.20;5.60;;;23.00;99.90;;;;;;4975093;28;20463;-67
2022/07/30 06:15:03;;;;;;;5.20;4.80;;;23.10;99.90;;;;;;4975025;28;20461;-67
2022/07/30 06:17:30;;;;;;;5.90;5.30;;;23.20;99.90;;;;;;4975092;28;20459;-67
2022/07/30 06:20:00;;;;;;;5.60;5.10;;;23.20;99.90;;;;;;4975098;28;20466;-67
2022/07/30 06:22:27;;;;;;;8.40;5.73;;;23.40;99.90;;;;;;4975173;28;20533;-68
2022/07/30 06:24:54;;;;;;;5.17;4.70;;;23.50;99.90;;;;;;4975153;28;20481;-71
2022/07/30 06:27:21;;;;;;;6.43;5.30;;;23.80;99.90;;;;;;4975233;28;20465;-69
2022/07/30 06:29:47;;;;;;;7.30;5.40;;;24.10;99.90;;;;;;4975081;28;20462;-70
2022/07/30 06:32:14;;;;;;;7.97;4.53;;;24.40;99.90;;;;;;4974931;28;20981;-70
2022/07/30 06:34:41;;;;;;;5.03;4.53;;;24.60;99.90;;;;;;4975290;28;20462;-71
2022/07/30 06:37:09;;;;;;;6.60;4.67;;;25.00;99.90;;;;;;4975270;28;20455;-71
2022/07/30 06:39:36;;;;;;;4.80;4.50;;;25.50;99.90;;;;;;4975043;28;20455;-71
2022/07/30 06:42:03;;;;;;;5.93;4.83;;;26.00;98.80;;;;;;4975250;28;20475;-71
2022/07/30 06:44:30;;;;;;;5.80;4.60;;;26.40;96.90;;;;;;4975450;28;21012;-71
2022/07/30 06:46:56;;;;;;;5.37;4.37;;;26.70;95.00;;;;;;4978667;28;20464;-71
2022/07/30 06:49:23;;;;;;;5.37;4.43;;;27.10;94.20;;;;;;4978352;28;21012;-71
2022/07/30 06:51:50;;;;;;;5.27;4.30;;;27.60;92.60;;;;;;4978746;28;20474;-71
2022/07/30 06:54:18;;;;;;;5.40;4.33;;;27.80;91.20;;;;;;4978738;28;20454;-71
2022/07/30 06:56:45;;;;;;;4.20;3.90;;;28.20;90.30;;;;;;4978557;28;20467;-71
2022/07/30 06:59:11;;;;;;;5.90;4.17;;;28.50;89.00;;;;;;4978808;28;20455;-71
2022/07/30 07:01:38;;;;;;;6.43;4.30;;;28.70;86.60;;;;;;4978183;28;20494;-71
2022/07/30 07:04:05;;;;;;;5.03;4.53;;;29.00;85.00;;;;;;4978355;28;20482;-71
2022/07/30 07:06:32;;;;;;;4.97;4.47;;;29.40;83.30;;;;;;4978401;28;20896;-71
2022/07/30 07:08:59;;;;;;;4.90;4.60;;;29.70;80.90;;;;;;4978446;28;20454;-71
2022/07/30 07:11:27;;;;;;;5.33;4.50;;;30.00;80.20;;;;;;4978131;28;20868;-71
2022/07/30 07:13:54;;;;;;;4.17;3.80;;;30.20;79.50;;;;;;4978429;28;20489;-71
2022/07/30 07:16:24;;;;;;;4.97;4.30;;;30.50;78.00;;;;;;4978047;28;20922;-71
2022/07/30 07:18:51;;;;;;;5.37;4.77;;;30.60;75.90;;;;;;4978223;28;20454;-71
2022/07/30 07:21:17;;;;;;;5.80;5.10;;;30.90;74.70;;;;;;4978212;28;20546;-71
2022/07/30 07:23:44;;;;;;;5.07;4.40;;;31.00;73.70;;;;;;4978072;28;20985;-71
2022/07/30 07:26:13;;;;;;;7.80;4.93;;;31.10;72.40;;;;;;4978021;28;20960;-71
2022/07/30 07:28:41;;;;;;;4.93;4.53;;;31.10;69.60;;;;;;4978093;28;20469;-71
2022/07/30 07:31:08;;;;;;;5.50;4.93;;;31.10;69.80;;;;;;4977494;28;20974;-71
2022/07/30 07:33:35;;;;;;;6.13;4.20;;;31.00;70.10;;;;;;4978471;28;20458;-72
2022/07/30 07:36:02;;;;;;;5.00;4.50;;;30.60;69.70;;;;;;4978254;28;20494;-72
2022/07/30 07:38:29;;;;;;;4.80;4.40;;;30.70;69.30;;;;;;4978008;28;20973;-72
2022/07/30 07:40:56;;;;;;;8.20;5.10;;;30.90;69.70;;;;;;4978030;28;20480;-71
2022/07/30 07:43:24;;;;;;;5.67;4.60;;;31.00;67.90;;;;;;4977773;28;20961;-71
2022/07/30 07:45:52;;;;;;;4.93;4.50;;;31.00;69.40;;;;;;4977914;28;20450;-71
2022/07/30 07:48:19;;;;;;;5.70;4.87;;;31.00;67.90;;;;;;4981254;28;20463;-71
2022/07/30 07:50:45;;;;;;;5.57;5.00;;;31.20;66.90;;;;;;4980930;28;20479;-71
2022/07/30 07:53:12;;;;;;;7.50;4.70;;;31.40;66.10;;;;;;4977882;28;20458;-71
2022/07/30 07:55:39;;;;;;;7.10;5.87;;;31.40;65.50;;;;;;4977117;28;20929;-71
2022/07/30 07:58:06;;;;;;;4.70;4.30;;;31.30;64.30;;;;;;4977431;28;20463;-71
2022/07/30 08:00:32;;;;;;;8.37;5.20;;;31.40;64.50;;;;;;4977453;28;20482;-71
2022/07/30 08:03:01;;;;;;;5.10;4.57;;;31.70;63.30;;;;;;4978079;28;20446;-70
2022/07/30 08:05:27;;;;;;;3.97;3.67;;;31.90;63.00;;;;;;4977680;28;20492;-72
2022/07/30 08:07:54;;;;;;;5.97;4.53;;;32.10;62.70;;;;;;4977913;28;20457;-71
2022/07/30 08:10:21;;;;;;;6.03;3.60;;;32.30;61.40;;;;;;4980695;28;20461;-71
2022/07/30 08:12:48;;;;;;;3.90;3.60;;;32.60;61.10;;;;;;4981473;28;20454;-71
2022/07/30 08:15:15;;;;;;;3.73;3.43;;;32.80;59.20;;;;;;4979242;28;20934;-71
2022/07/30 08:17:42;;;;;;;4.40;2.73;;;32.80;57.70;;;;;;4977006;28;20454;-71
2022/07/30 08:20:12;;;;;;;4.83;4.43;;;32.60;58.10;;;;;;4976757;28;20465;-72
2022/07/30 08:22:39;;;;;;;5.20;4.30;;;32.60;58.10;;;;;;4977159;28;20853;-72
2022/07/30 08:25:07;;;;;;;4.10;3.60;;;32.30;57.20;;;;;;4977243;28;20478;-71
2022/07/30 08:27:34;;;;;;;5.93;3.90;;;32.30;58.50;;;;;;4977337;28;20459;-69
2022/07/30 08:30:04;;;;;;;4.00;3.70;;;32.50;57.60;;;;;;4976628;28;20466;-69
2022/07/30 08:32:30;;;;;;;5.63;4.20;;;32.60;58.10;;;;;;4976841;28;20479;-69
2022/07/30 08:34:57;;;;;;;6.00;4.20;;;32.90;58.40;;;;;;4976446;28;20918;-69
2022/07/30 08:37:25;;;;;;;4.77;3.43;;;33.20;58.10;;;;;;4976856;28;20513;-69
2022/07/30 08:39:52;;;;;;;3.70;3.33;;;33.70;57.00;;;;;;4976724;28;20459;-69
2022/07/30 08:42:19;;;;;;;2.92;2.63;;;34.00;56.10;;;;;;4975579;28;20468;-69
2022/07/30 08:44:46;;;;;;;5.03;3.07;;;34.20;54.70;;;;;;4976627;28;20215;-71
2022/07/30 08:47:17;;;;;;;5.57;3.60;;;34.90;54.80;;;;;;4976266;28;20973;-70
2022/07/30 08:49:44;;;;;;;3.27;2.97;;;35.30;53.00;;;;;;4976687;28;20453;-69
2022/07/30 08:52:11;;;;;;;3.60;3.10;;;34.70;52.50;;;;;;4976470;28;20478;-69
2022/07/30 08:54:40;;;;;;;3.80;3.05;;;34.50;52.20;;;;;;4976343;28;20442;-69
2022/07/30 08:57:07;;;;;;;6.07;2.90;;;34.30;52.30;;;;;;4976071;28;20213;-69
2022/07/30 08:59:34;;;;;;;3.87;3.53;;;34.60;52.10;;;;;;4976192;28;20458;-69
2022/07/30 09:02:01;;;;;;;4.30;3.90;;;34.30;52.80;;;;;;4976044;28;20509;-71
2022/07/30 09:04:28;;;;;;;3.53;3.23;;;34.20;51.70;;;;;;4976495;28;20478;-69
2022/07/30 09:06:56;;;;;;;4.50;3.43;;;34.40;51.30;;;;;;4976047;28;20473;-71
2022/07/30 09:09:23;;;;;;;4.67;4.27;;;34.40;51.50;;;;;;4976088;28;20810;-71
2022/07/30 09:11:51;;;;;;;3.00;2.80;;;34.50;50.00;;;;;;4976186;28;20496;-71
2022/07/30 09:14:17;;;;;;;3.57;3.00;;;34.80;51.80;;;;;;4976464;28;20454;-71
2022/07/30 09:16:45;;;;;;;4.87;4.30;;;34.80;50.90;;;;;;4976370;28;20469;-66
2022/07/30 09:19:14;;;;;;;3.37;3.07;;;34.60;49.40;;;;;;4976099;28;20548;-66
2022/07/30 09:21:41;;;;;;;2.90;2.70;;;34.80;48.90;;;;;;4975733;28;20989;-66
2022/07/30 09:24:09;;;;;;;5.70;3.50;;;34.80;49.80;;;;;;4976073;28;20814;-67
2022/07/30 09:26:54;;;;;;;3.50;2.53;;;34.90;50.20;;;;;;4975829;28;20976;-66
2022/07/30 09:29:23;;;;;;;3.53;3.33;;;35.10;49.50;;;;;;4976210;28;20439;-66
2022/07/30 09:31:55;;;;;;;4.00;3.57;;;34.20;49.50;;;;;;4975857;28;20474;-66
2022/07/30 09:34:29;;;;;;;4.97;3.77;;;33.70;50.60;;;;;;4975554;28;20945;-65
2022/07/30 09:36:57;;;;;;;3.63;3.33;;;33.50;50.70;;;;;;4975868;28;20450;-65
2022/07/30 09:39:31;;;;;;;3.60;3.00;;;33.00;50.90;;;;;;4976017;28;20451;-65
2022/07/30 09:42:00;;;;;;;5.90;3.10;;;33.00;52.00;;;;;;4975587;28;20476;-65
2022/07/30 09:44:29;;;;;;;3.37;3.10;;;33.50;50.20;;;;;;4975534;28;20529;-66
2022/07/30 09:46:58;;;;;;;3.77;2.80;;;33.70;50.10;;;;;;4975633;28;20449;-66
2022/07/30 09:49:26;;;;;;;3.33;2.97;;;33.80;50.20;;;;;;4975498;28;20462;-66
2022/07/30 09:51:54;;;;;;;3.10;2.90;;;33.60;50.10;;;;;;4975366;28;20478;-65
2022/07/30 09:54:21;;;;;;;4.10;3.10;;;32.80;49.60;;;;;;4976598;28;20839;-65
2022/07/30 09:57:02;;;;;;;3.60;3.30;;;32.10;51.20;;;;;;4975634;28;20462;-65
2022/07/30 09:59:32;;;;;;;3.13;2.93;;;31.60;52.00;;;;;;4976135;28;20442;-66
2022/07/30 10:01:58;;;;;;;3.10;2.70;;;31.90;51.60;;;;;;4975439;28;20497;-65
2022/07/30 10:04:26;;;;;;;3.30;2.97;;;32.50;51.30;;;;;;4975253;28;20485;-65
2022/07/30 10:06:53;;;;;;;2.60;2.40;;;33.00;50.90;;;;;;4975507;28;20465;-66
2022/07/30 10:09:27;;;;;;;3.60;2.97;;;33.10;49.70;;;;;;4975441;28;20953;-66
2022/07/30 10:11:55;;;;;;;3.37;2.90;;;33.10;48.90;;;;;;4975243;28;20900;-66
2022/07/30 10:14:24;;;;;;;4.50;3.10;;;32.90;49.30;;;;;;4975251;28;20458;-66
2022/07/30 10:16:52;;;;;;;3.00;2.80;;;32.60;49.30;;;;;;4975303;28;20458;-66
2022/07/30 10:19:20;;;;;;;5.83;3.30;;;32.10;50.00;;;;;;4974083;28;20942;-65
2022/07/30 10:21:48;;;;;;;2.73;2.53;;;31.70;51.00;;;;;;4974641;28;21008;-66
2022/07/30 10:24:17;;;;;;;4.87;3.37;;;31.30;51.60;;;;;;4975024;28;20459;-66
2022/07/30 10:26:44;;;;;;;3.83;2.93;;;31.10;52.90;;;;;;4975106;28;20450;-66
2022/07/30 10:29:11;;;;;;;2.80;2.60;;;31.40;52.10;;;;;;4975181;28;20458;-65
2022/07/30 10:31:38;;;;;;;2.93;2.73;;;31.70;52.10;;;;;;4974938;28;20475;-65
2022/07/30 10:34:07;;;;;;;3.60;2.50;;;32.00;53.10;;;;;;4975071;28;20462;-66
2022/07/30 10:36:35;;;;;;;2.97;2.77;;;32.10;51.60;;;;;;4974972;28;20455;-66
2022/07/30 10:39:02;;;;;;;3.10;2.90;;;32.70;49.80;;;;;;4974996;28;20461;-66
2022/07/30 10:41:41;;;;;;;3.07;2.53;;;33.60;50.20;;;;;;4974810;28;20844;-66
2022/07/30 10:44:23;;;;;;;5.97;2.33;;;34.40;49.10;;;;;;4975071;28;20446;-66
2022/07/30 10:47:00;;;;;;;6.73;2.60;;;35.00;47.90;;;;;;4974912;28;20460;-67
2022/07/30 10:49:28;;;;;;;2.87;2.60;;;35.60;46.50;;;;;;4975090;28;20442;-65
2022/07/30 10:51:56;;;;;;;4.53;3.10;;;35.60;46.70;;;;;;4974771;28;20478;-66
2022/07/30 10:54:40;;;;;;;5.20;3.10;;;35.90;46.50;;;;;;4974459;28;20462;-65
2022/07/30 10:57:10;;;;;;;2.50;2.30;;;36.40;46.00;;;;;;4974337;28;20941;-65
2022/07/30 11:00:12;;;;;;;4.20;2.33;;;36.50;45.60;;;;;;4974917;28;20453;-65
2022/07/30 11:02:39;;;;;;;3.73;2.37;;;36.50;45.20;;;;;;4974557;28;20484;-65
2022/07/30 11:05:27;;;;;;;6.50;2.50;;;36.70;44.40;;;;;;4974198;28;20829;-65
2022/07/30 11:07:54;;;;;;;5.73;2.57;;;36.70;42.60;;;;;;4974524;28;20485;-65
2022/07/30 11:10:38;;;;;;;4.43;2.83;;;36.90;44.40;;;;;;4974629;28;20845;-66
2022/07/30 11:13:06;;;;;;;2.93;2.67;;;36.90;44.40;;;;;;4974753;28;20493;-65
2022/07/30 11:15:54;;;;;;;4.53;2.10;;;36.10;44.00;;;;;;4974448;28;20459;-66
2022/07/30 11:18:21;;;;;;;2.90;2.70;;;35.50;45.40;;;;;;4974492;28;20486;-65
2022/07/30 11:21:17;;;;;;;2.80;2.53;;;35.10;44.80;;;;;;4974543;28;20501;-66
2022/07/30 11:23:45;;;;;;;2.23;2.13;;;34.60;45.40;;;;;;4974570;28;20435;-65
2022/07/30 11:26:49;;;;;;;2.93;2.37;;;34.30;46.40;;;;;;4974163;28;20514;-65
2022/07/30 11:29:35;;;;;;;2.03;1.93;;;34.60;46.30;;;;;;4974509;28;20457;-65
2022/07/30 11:32:27;;;;;;;2.80;1.90;;;34.70;45.00;;;;;;4977958;28;20478;-65
2022/07/30 11:35:13;;;;;;;2.80;1.90;;;34.80;45.20;;;;;;4978014;28;20434;-65
2022/07/30 11:38:01;;;;;;;5.20;2.23;;;34.80;44.20;;;;;;4978019;28;20529;-65
2022/07/30 11:40:29;;;;;;;2.03;1.93;;;35.00;43.70;;;;;;4978012;28;20928;-66
2022/07/30 11:43:24;;;;;;;2.37;1.50;;;34.80;43.00;;;;;;4978588;28;20450;-65
2022/07/30 11:45:52;;;;;;;4.50;1.57;;;34.60;43.40;;;;;;4954549;28;20489;-65
2022/07/30 11:48:20;;;;;;;3.53;2.30;;;34.50;44.90;;;;;;4977758;28;20508;-65
2022/07/30 11:50:47;;;;;;;2.10;1.90;;;34.60;44.20;;;;;;4977723;28;20565;-65
2022/07/30 11:53:18;;;;;;;2.00;1.90;;;34.30;43.90;;;;;;4977519;28;20459;-65
2022/07/30 11:55:49;;;;;;;2.10;1.90;;;34.00;44.10;;;;;;4977474;28;20450;-65
2022/07/30 11:58:25;;;;;;;2.40;2.20;;;33.80;44.60;;;;;;4977629;28;20443;-65
2022/07/30 12:00:53;;;;;;;2.33;2.13;;;33.60;45.40;;;;;;4977261;28;20485;-65
2022/07/30 12:03:21;;;;;;;2.47;2.00;;;33.40;45.70;;;;;;4977574;28;20826;-65
2022/07/30 12:05:48;;;;;;;2.73;2.43;;;33.10;44.90;;;;;;4977220;28;20479;-64
2022/07/30 12:08:17;;;;;;;3.30;2.30;;;32.70;46.20;;;;;;4978075;28;20458;-65
2022/07/30 12:10:57;;;;;;;2.47;2.27;;;32.50;46.90;;;;;;4976905;28;20482;-64
2022/07/30 12:13:24;;;;;;;2.30;2.20;;;32.50;48.20;;;;;;4977134;28;20493;-64
2022/07/30 12:15:51;;;;;;;2.87;2.63;;;32.30;46.70;;;;;;4976985;28;20505;-64
2022/07/30 12:18:25;;;;;;;2.60;2.50;;;32.30;47.40;;;;;;4976732;28;20821;-65
2022/07/30 12:20:57;;;;;;;7.83;2.17;;;32.40;48.30;;;;;;4977050;28;20478;-65
2022/07/30 12:23:26;;;;;;;2.40;2.20;;;32.50;47.70;;;;;;4977186;28;20459;-65
2022/07/30 12:25:53;;;;;;;2.97;2.20;;;32.60;48.60;;;;;;4976620;28;21133;-65
2022/07/30 12:28:21;;;;;;;2.83;2.63;;;32.60;47.50;;;;;;4976893;28;20858;-65
2022/07/30 12:30:48;;;;;;;3.97;3.30;;;32.80;47.90;;;;;;4976797;28;20479;-65
2022/07/30 12:33:15;;;;;;;3.90;2.40;;;32.70;47.50;;;;;;4976836;28;20458;-65
2022/07/30 12:35:43;;;;;;;5.47;2.73;;;32.60;48.50;;;;;;4976898;28;20455;-65
2022/07/30 12:38:10;;;;;;;2.77;2.37;;;32.60;48.10;;;;;;4976811;28;20454;-65
2022/07/30 12:40:56;;;;;;;5.60;2.73;;;32.40;47.60;;;;;;4976530;28;20504;-65
2022/07/30 12:43:41;;;;;;;3.03;2.83;;;32.20;47.80;;;;;;4975899;28;20446;-64
2022/07/30 12:46:08;;;;;;;8.23;2.20;;;32.30;49.80;;;;;;4976470;28;20529;-64
2022/07/30 12:48:35;;;;;;;8.33;2.90;;;32.50;49.80;;;;;;4976454;28;20467;-65
2022/07/30 12:51:06;;;;;;;2.47;2.27;;;32.50;47.50;;;;;;4975986;28;21004;-65
2022/07/30 12:53:33;;;;;;;2.53;2.37;;;32.50;48.60;;;;;;4976406;28;20454;-65
2022/07/30 12:56:12;;;;;;;2.23;2.13;;;32.60;47.20;;;;;;4976010;28;20966;-65
2022/07/30 12:58:39;;;;;;;12.47;2.40;;;32.50;47.10;;;;;;4976186;28;20439;-65
2022/07/30 13:01:07;;;;;;;4.00;2.03;;;32.40;47.80;;;;;;4975913;28;20486;-65
2022/07/30 13:03:38;;;;;;;2.60;2.40;;;32.50;48.80;;;;;;4976193;28;20458;-65
2022/07/30 13:06:13;;;;;;;2.93;2.37;;;32.60;48.40;;;;;;4976215;28;20463;-65
2022/07/30 13:08:52;;;;;;;2.40;2.20;;;32.70;49.00;;;;;;4976201;28;20537;-65
2022/07/30 13:11:21;;;;;;;1.97;1.87;;;32.90;49.60;;;;;;4976216;28;20482;-65
2022/07/30 13:13:49;;;;;;;3.63;2.10;;;33.10;47.30;;;;;;4976083;28;20894;-65
2022/07/30 13:16:17;;;;;;;2.10;2.00;;;32.90;47.90;;;;;;4976027;28;20461;-64
2022/07/30 13:18:44;;;;;;;2.83;2.10;;;33.10;46.50;;;;;;4976582;28;20513;-65
2022/07/30 13:21:11;;;;;;;2.67;2.47;;;33.10;48.00;;;;;;4976023;28;20486;-65
2022/07/30 13:23:38;;;;;;;3.00;1.60;;;33.10;48.20;;;;;;4975423;28;20464;-65
2022/07/30 13:26:07;;;;;;;2.30;2.10;;;33.20;47.30;;;;;;4975722;28;20222;-67
2022/07/30 13:28:35;;;;;;;2.33;2.13;;;33.10;45.90;;;;;;4975852;28;20458;-67
2022/07/30 13:31:03;;;;;;;2.20;2.10;;;33.20;47.40;;;;;;4975799;28;20474;-67
2022/07/30 13:33:30;;;;;;;2.37;2.17;;;33.30;46.60;;;;;;4975642;28;20815;-67
2022/07/30 13:35:57;;;;;;;2.40;2.30;;;32.90;46.70;;;;;;4975744;28;20450;-67
2022/07/30 13:38:23;;;;;;;2.60;2.30;;;32.90;47.50;;;;;;4975632;28;20461;-68
2022/07/30 13:40:50;;;;;;;2.77;2.40;;;32.90;46.70;;;;;;4975284;28;20474;-67
2022/07/30 13:43:17;;;;;;;2.50;2.23;;;32.80;46.20;;;;;;4975300;28;20445;-67
2022/07/30 13:45:45;;;;;;;2.73;2.53;;;32.80;48.50;;;;;;4975625;28;20469;-67
2022/07/30 13:48:13;;;;;;;3.73;2.00;;;32.90;47.90;;;;;;4975302;28;20454;-67
2022/07/30 13:50:39;;;;;;;2.53;2.00;;;32.90;47.90;;;;;;4975522;28;20474;-68
2022/07/30 13:53:07;;;;;;;3.67;2.23;;;32.80;47.50;;;;;;4974886;28;20462;-67
2022/07/30 13:55:34;;;;;;;2.00;1.90;;;32.90;46.70;;;;;;4975393;28;20497;-67
2022/07/30 13:58:01;;;;;;;2.10;1.90;;;32.70;48.10;;;;;;4975189;28;20443;-67
2022/07/30 14:00:31;;;;;;;1.90;1.80;;;32.60;47.30;;;;;;4974821;28;20465;-68
2022/07/30 14:03:00;;;;;;;2.67;2.47;;;32.60;48.10;;;;;;4975496;28;20439;-68
2022/07/30 14:05:27;;;;;;;2.40;1.97;;;32.60;48.60;;;;;;4975333;28;20487;-68
2022/07/30 14:07:54;;;;;;;2.10;2.00;;;32.80;47.40;;;;;;4975114;28;20464;-67
2022/07/30 14:10:22;;;;;;;3.63;2.13;;;32.80;47.10;;;;;;4975153;28;20459;-67
2022/07/30 14:12:48;;;;;;;1.80;1.70;;;32.80;46.80;;;;;;4975221;28;20494;-67
2022/07/30 14:15:15;;;;;;;2.73;2.53;;;32.70;47.60;;;;;;4975281;28;20513;-67
2022/07/30 14:17:42;;;;;;;2.83;1.70;;;32.50;46.60;;;;;;4975168;28;20443;-68
2022/07/30 14:20:11;;;;;;;3.53;2.30;;;32.40;47.50;;;;;;4975329;28;20458;-67
2022/07/30 14:22:40;;;;;;;1.77;1.67;;;32.20;47.30;;;;;;4975237;28;20529;-67
2022/07/30 14:25:08;;;;;;;2.83;1.90;;;32.10;47.70;;;;;;4975181;28;20509;-67
2022/07/30 14:27:35;;;;;;;1.73;1.63;;;32.30;48.30;;;;;;4974956;28;20478;-67
2022/07/30 14:30:03;;;;;;;2.00;1.70;;;32.40;48.20;;;;;;4975072;28;20442;-67
2022/07/30 14:32:30;;;;;;;2.30;1.80;;;32.60;47.10;;;;;;4974961;28;20497;-68
2022/07/30 14:34:56;;;;;;;2.57;1.73;;;32.60;47.50;;;;;;4974963;28;20454;-67
2022/07/30 14:37:25;;;;;;;2.70;2.33;;;32.60;46.80;;;;;;4974914;28;20450;-67
2022/07/30 14:39:51;;;;;;;2.13;2.03;;;32.60;47.00;;;;;;4975505;28;20454;-67
2022/07/30 14:42:19;;;;;;;1.80;1.70;;;32.40;48.10;;;;;;4974843;28;20479;-67
2022/07/30 14:44:46;;;;;;;2.30;2.20;;;32.10;47.40;;;;;;4974851;28;20481;-67
2022/07/30 14:47:13;;;;;;;2.40;1.67;;;31.60;47.40;;;;;;4974805;28;20518;-68
2022/07/30 14:49:40;;;;;;;2.60;2.10;;;31.40;48.20;;;;;;4975555;28;20462;-67
2022/07/30 14:52:07;;;;;;;2.13;2.03;;;31.20;48.40;;;;;;4974724;28;20493;-67
2022/07/30 14:54:35;;;;;;;2.43;2.23;;;31.10;48.60;;;;;;4974934;28;20466;-67
2022/07/30 14:57:01;;;;;;;1.77;1.67;;;30.90;48.60;;;;;;4975332;28;20435;-67
2022/07/30 14:59:28;;;;;;;2.33;1.90;;;30.60;48.80;;;;;;4975287;28;20818;-67
2022/07/30 15:01:55;;;;;;;2.67;1.73;;;30.50;49.00;;;;;;4974235;28;20486;-67
2022/07/30 15:04:22;;;;;;;1.70;1.60;;;30.30;49.30;;;;;;4975136;28;20454;-67
2022/07/30 15:06:49;;;;;;;2.80;2.27;;;30.20;50.10;;;;;;4977632;28;20482;-67
2022/07/30 15:09:16;;;;;;;3.40;1.53;;;29.90;49.40;;;;;;4978769;28;20461;-67
2022/07/30 15:11:44;;;;;;;3.50;2.10;;;29.80;49.90;;;;;;4978333;28;20549;-67
2022/07/30 15:14:12;;;;;;;2.90;2.17;;;29.90;50.90;;;;;;4978401;28;20481;-67
2022/07/30 15:16:39;;;;;;;2.27;2.07;;;30.10;50.00;;;;;;4978159;28;20447;-67
2022/07/30 15:19:06;;;;;;;3.87;2.60;;;30.30;50.70;;;;;;4978215;28;20814;-67
2022/07/30 15:21:32;;;;;;;1.97;1.87;;;30.50;50.50;;;;;;4978280;28;20470;-67
2022/07/30 15:23:59;;;;;;;2.83;2.13;;;30.60;50.80;;;;;;4978242;28;20453;-67
2022/07/30 15:26:27;;;;;;;4.13;2.03;;;30.80;49.50;;;;;;4977968;28;20481;-67
2022/07/30 15:28:55;;;;;;;2.80;2.23;;;31.00;49.30;;;;;;4977969;28;20454;-67
2022/07/30 15:31:22;;;;;;;2.37;2.17;;;31.10;49.00;;;;;;4978028;28;20843;-70
2022/07/30 15:33:48;;;;;;;3.67;1.70;;;31.10;49.00;;;;;;4978203;28;20501;-70
2022/07/30 15:36:15;;;;;;;1.67;1.67;;;31.20;48.30;;;;;;4978304;28;20450;-70
2022/07/30 15:38:43;;;;;;;1.93;1.83;;;31.40;49.20;;;;;;4977794;28;20454;-70
2022/07/30 15:41:10;;;;;;;1.53;1.53;;;31.50;48.20;;;;;;4977607;28;20990;-71
2022/07/30 15:43:37;;;;;;;2.90;2.10;;;31.40;48.60;;;;;;4977840;28;20458;-71
2022/07/30 15:46:05;;;;;;;2.10;2.00;;;31.30;48.50;;;;;;4977654;28;20478;-70
2022/07/30 15:48:31;;;;;;;1.60;1.60;;;31.20;48.40;;;;;;4977959;28;20459;-68
2022/07/30 15:51:01;;;;;;;2.07;1.87;;;31.10;48.60;;;;;;4977246;28;20483;-67
2022/07/30 15:53:29;;;;;;;1.90;1.80;;;30.80;48.40;;;;;;4977742;28;20459;-67
2022/07/30 15:55:55;;;;;;;2.63;2.37;;;30.50;49.10;;;;;;4977566;28;20458;-68
2022/07/30 15:58:22;;;;;;;2.03;1.90;;;30.40;49.90;;;;;;4977666;28;20485;-68
2022/07/30 16:00:49;;;;;;;4.13;2.80;;;30.30;50.10;;;;;;4977236;28;20561;-68
2022/07/30 16:03:17;;;;;;;3.43;2.13;;;30.20;50.10;;;;;;4977516;28;20459;-68
2022/07/30 16:05:44;;;;;;;2.10;2.00;;;30.10;50.40;;;;;;4977201;28;20458;-68
2022/07/30 16:08:11;;;;;;;2.47;1.67;;;29.80;50.50;;;;;;4976787;28;20462;-70
2022/07/30 16:10:39;;;;;;;4.40;2.10;;;29.70;51.10;;;;;;4976714;28;20215;-70
2022/07/30 16:13:06;;;;;;;4.73;2.60;;;29.90;51.70;;;;;;4977288;28;20454;-69
2022/07/30 16:15:33;;;;;;;2.47;2.27;;;30.00;51.80;;;;;;4977009;28;20463;-69
2022/07/30 16:17:59;;;;;;;3.13;2.73;;;30.00;51.20;;;;;;4975744;28;20461;-69
2022/07/30 16:20:28;;;;;;;2.70;2.03;;;29.90;50.90;;;;;;4976527;28;20765;-69
2022/07/30 16:22:54;;;;;;;2.50;2.30;;;29.80;51.20;;;;;;4977028;28;20814;-69
2022/07/30 16:25:21;;;;;;;2.23;2.03;;;29.80;51.30;;;;;;4977039;28;20464;-70
2022/07/30 16:27:48;;;;;;;2.33;2.23;;;29.70;51.20;;;;;;4976768;28;20489;-69
2022/07/30 16:30:15;;;;;;;2.70;2.40;;;29.60;51.40;;;;;;4976610;28;20965;-68
2022/07/30 16:32:41;;;;;;;2.07;1.97;;;29.60;51.40;;;;;;4976870;28;20534;-68
2022/07/30 16:35:09;;;;;;;3.80;2.20;;;29.70;51.90;;;;;;4976752;28;20458;-68
2022/07/30 16:37:37;;;;;;;2.53;2.00;;;29.80;51.70;;;;;;4976654;28;20450;-69
2022/07/30 16:40:04;;;;;;;4.87;2.27;;;29.90;51.40;;;;;;4976410;28;20970;-68
2022/07/30 16:42:31;;;;;;;2.10;1.80;;;30.00;51.40;;;;;;4976226;28;20996;-68
2022/07/30 16:44:58;;;;;;;2.60;1.80;;;30.00;51.20;;;;;;4976941;28;20458;-68
2022/07/30 16:47:24;;;;;;;3.33;2.00;;;30.10;51.10;;;;;;4976440;28;20482;-68
2022/07/30 16:49:51;;;;;;;2.10;2.00;;;30.10;50.90;;;;;;4976473;28;20454;-68
2022/07/30 16:52:18;;;;;;;2.40;2.20;;;30.00;50.20;;;;;;4976368;28;20814;-67
2022/07/30 16:54:46;;;;;;;2.47;2.37;;;29.90;50.40;;;;;;4976640;28;20459;-68
2022/07/30 16:57:14;;;;;;;1.80;1.70;;;29.90;50.70;;;;;;4976252;28;20946;-68